ANA60 RJCC-RJTT
Flight info
| Callsign | ANA60 |
|---|---|
| Flight time | N/A |
| Altitude | 40000 |
| Route | TOBBY Y10 GODIN |
| Aircraft | B772/H-SDE2E3FGHIJ5LORVWXY/LB1D1 |
Departure
| Time | N/A |
|---|---|
| Airport | New Chitose Airport (RJCC) |
Arrival
| Time | 2026-05-01 07:24 |
|---|---|
| Airport | Tokyo Haneda International Airport (RJTT) |
| Time | Latitude | Longitude | Altitude | Speed | Heading |
|---|---|---|---|---|---|
| 2026-05-01 07:23 | 35.58827 | 139.77074 | 555 ft | 133 kts | 154° |
| 2026-05-01 07:23 | 35.57208 | 139.78226 | 209 ft | 134 kts | 153° |
| 2026-05-01 07:24 | 35.56395 | 139.78796 | 69 ft | 134 kts | 152° |
| 2026-05-01 07:24 | 35.55620 | 139.79346 | 16 ft | 119 kts | 152° |
| 2026-05-01 07:24 | 35.55022 | 139.79767 | 15 ft | 76 kts | 150° |
| 2026-05-01 07:24 | 35.54695 | 139.80002 | 15 ft | 38 kts | 150° |
| 2026-05-01 07:25 | 35.54483 | 139.80058 | 15 ft | 10 kts | 179° |
| 2026-05-01 07:25 | 35.54456 | 139.80058 | 15 ft | 0 kts | 180° |
| 2026-05-01 07:26 | 35.54443 | 139.80057 | 15 ft | 8 kts | 188° |
| 2026-05-01 07:26 | 35.54407 | 139.79971 | 15 ft | 13 kts | 288° |
| 2026-05-01 07:26 | 35.54483 | 139.79895 | 15 ft | 15 kts | 330° |
| 2026-05-01 07:26 | 35.54577 | 139.79826 | 15 ft | 16 kts | 329° |
| 2026-05-01 07:27 | 35.54677 | 139.79756 | 15 ft | 16 kts | 330° |
| 2026-05-01 07:27 | 35.54783 | 139.79681 | 15 ft | 17 kts | 330° |
| 2026-05-01 07:27 | 35.54890 | 139.79605 | 15 ft | 18 kts | 329° |
| 2026-05-01 07:27 | 35.55000 | 139.79527 | 15 ft | 18 kts | 330° |
| 2026-05-01 07:28 | 35.55102 | 139.79451 | 15 ft | 15 kts | 313° |
| 2026-05-01 07:28 | 35.55092 | 139.79336 | 16 ft | 14 kts | 239° |
| 2026-05-01 07:28 | 35.55044 | 139.79239 | 20 ft | 11 kts | 239° |
| 2026-05-01 07:28 | 35.55033 | 139.79161 | 24 ft | 7 kts | 263° |
| 2026-05-01 07:29 | 35.55012 | 139.79105 | 26 ft | 5 kts | 238° |
| 2026-05-01 07:29 | 35.54999 | 139.79077 | 28 ft | 3 kts | 239° |
| 2026-05-01 07:29 | 35.54995 | 139.79069 | 28 ft | 0 kts | 239° |